Dades meteomassalio
Diari Summary for Octubre 30, 2017 Units:  Metric    English   Both
« Previous Day
Next Day »
Diari Semanal Mensual Anual Personalitzat
  Maxima: Minima: Mijana:
Temperatura: 20.6 °C 9.4 °C 15 °C
Rosada: 10.7 °C 3.6 °C 8.3 °C
Humitat: 75 % 48 % 65 %
Velocitat del vent: 33.3 km/h 0.0 km/h 20.6 km/h
Racha vent: 33.3 km/h - -
Vent:- - SSW
Pressio: 1024.3 hPa 1017.8 hPa -
Pluja: 0.0 mm    
Historical Graphs
 
 
Tabular Data for Octubre 30, 2017
Time Temperature Dew Point Pressure Wind Wind Speed Wind Gust Humidity Rainfall Rate (Hourly) solar Conditions
00:01 12.8 °C 8.3 °C 1022.6 hPa South 7.4 km/h 7.4 km/h 74 % 0.0 mm 0.0 W/m2 CLR
00:06 12.8 °C 8.3 °C 1022.6 hPa South 13.0 km/h 13.0 km/h 74 % 0.0 mm 0.0 W/m2 CLR
00:11 13.3 °C 8.6 °C 1022.6 hPa South 18.5 km/h 18.5 km/h 73 % 0.0 mm 0.0 W/m2 CLR
00:16 13.3 °C 8.6 °C 1022.6 hPa South 25.9 km/h 25.9 km/h 73 % 0.0 mm 0.0 W/m2 CLR
00:21 13.3 °C 8.6 °C 1022.2 hPa South 13.0 km/h 13.0 km/h 73 % 0.0 mm 0.0 W/m2 CLR
00:26 13.3 °C 8.6 °C 1022.2 hPa South 14.8 km/h 14.8 km/h 73 % 0.0 mm 0.0 W/m2 CLR
00:31 13.3 °C 8.6 °C 1022.2 hPa South 18.5 km/h 18.5 km/h 73 % 0.0 mm 0.0 W/m2 CLR
00:36 13.3 °C 8.4 °C 1022.2 hPa South 18.5 km/h 18.5 km/h 72 % 0.0 mm 0.0 W/m2 CLR
00:41 13.3 °C 8.4 °C 1022.2 hPa SSW 18.5 km/h 18.5 km/h 72 % 0.0 mm 0.0 W/m2 CLR
00:46 13.3 °C 8.6 °C 1022.2 hPa South 25.9 km/h 25.9 km/h 73 % 0.0 mm 0.0 W/m2 CLR
00:51 13.3 °C 8.4 °C 1022.2 hPa SSW 18.5 km/h 18.5 km/h 72 % 0.0 mm 0.0 W/m2 CLR
00:56 13.3 °C 8.6 °C 1022.2 hPa SSW 20.4 km/h 20.4 km/h 73 % 0.0 mm 0.0 W/m2 CLR
01:01 13.3 °C 8.6 °C 1022.2 hPa SSW 18.5 km/h 18.5 km/h 73 % 0.0 mm 0.0 W/m2 CLR
01:06 13.3 °C 8.6 °C 1022.2 hPa South 25.9 km/h 25.9 km/h 73 % 0.0 mm 0.0 W/m2 CLR
01:11 13.3 °C 8.6 °C 1022.2 hPa SSW 16.7 km/h 16.7 km/h 73 % 0.0 mm 0.0 W/m2 CLR
01:16 13.3 °C 8.6 °C 1022.2 hPa South 22.2 km/h 22.2 km/h 73 % 0.0 mm 0.0 W/m2 CLR
01:21 13.3 °C 8.6 °C 1022.2 hPa SSW 18.5 km/h 18.5 km/h 73 % 0.0 mm 0.0 W/m2 CLR
01:26 13.3 °C 8.6 °C 1021.9 hPa South 20.4 km/h 20.4 km/h 73 % 0.0 mm 0.0 W/m2 CLR
01:31 13.3 °C 8.6 °C 1021.9 hPa SSW 20.4 km/h 20.4 km/h 73 % 0.0 mm 0.0 W/m2 CLR
01:36 12.8 °C 8.3 °C 1021.9 hPa South 24.1 km/h 24.1 km/h 74 % 0.0 mm 0.0 W/m2 CLR
01:41 12.8 °C 8.1 °C 1021.9 hPa SW 18.5 km/h 18.5 km/h 73 % 0.0 mm 0.0 W/m2 CLR
01:46 12.8 °C 8.1 °C 1021.9 hPa SSW 20.9 km/h 20.9 km/h 73 % 0.0 mm 0.0 W/m2 CLR
01:51 12.8 °C 8.3 °C 1021.9 hPa South 22.2 km/h 22.2 km/h 74 % 0.0 mm 0.0 W/m2 CLR
01:56 13.3 °C 8.8 °C 1021.9 hPa SSW 18.5 km/h 18.5 km/h 74 % 0.0 mm 0.0 W/m2 CLR
02:01 13.3 °C 8.6 °C 1021.9 hPa SSE 25.9 km/h 25.9 km/h 73 % 0.0 mm 0.0 W/m2 CLR
02:06 12.8 °C 8.3 °C 1021.9 hPa SSW 14.5 km/h 14.5 km/h 74 % 0.0 mm 0.0 W/m2 CLR
02:07 12.8 °C 8.3 °C 1021.9 hPa South 14.8 km/h 14.8 km/h 74 % 0.0 mm 0.0 W/m2 CLR
02:12 12.8 °C 8.1 °C 1021.9 hPa SSW 16.7 km/h 16.7 km/h 73 % 0.0 mm 0.0 W/m2 CLR
02:17 13.3 °C 8.8 °C 1021.6 hPa South 20.4 km/h 20.4 km/h 74 % 0.0 mm 0.0 W/m2 CLR
02:22 13.3 °C 8.8 °C 1021.6 hPa SSW 16.7 km/h 16.7 km/h 74 % 0.0 mm 0.0 W/m2 CLR
02:27 13.3 °C 8.8 °C 1021.6 hPa SSW 24.1 km/h 24.1 km/h 74 % 0.0 mm 0.0 W/m2 CLR
02:32 13.3 °C 8.8 °C 1021.6 hPa SW 20.4 km/h 20.4 km/h 74 % 0.0 mm 0.0 W/m2 CLR
02:37 13.3 °C 8.8 °C 1021.6 hPa South 18.5 km/h 18.5 km/h 74 % 0.0 mm 0.0 W/m2 CLR
02:42 13.3 °C 8.8 °C 1021.6 hPa South 13.0 km/h 13.0 km/h 74 % 0.0 mm 0.0 W/m2 CLR
02:47 13.3 °C 8.8 °C 1021.6 hPa SW 24.1 km/h 24.1 km/h 74 % 0.0 mm 0.0 W/m2 CLR
02:52 13.3 °C 8.8 °C 1021.6 hPa SSW 22.5 km/h 22.5 km/h 74 % 0.0 mm 0.0 W/m2 CLR
02:57 13.3 °C 8.8 °C 1021.6 hPa SSW 24.1 km/h 24.1 km/h 74 % 0.0 mm 0.0 W/m2 CLR
03:02 13.3 °C 8.8 °C 1021.2 hPa SSW 18.5 km/h 18.5 km/h 74 % 0.0 mm 0.0 W/m2 CLR
03:07 13.3 °C 8.8 °C 1021.2 hPa SSW 22.2 km/h 22.2 km/h 74 % 0.0 mm 0.0 W/m2 CLR
03:12 13.3 °C 8.6 °C 1021.2 hPa South 20.4 km/h 20.4 km/h 73 % 0.0 mm 0.0 W/m2 CLR
03:17 13.3 °C 8.6 °C 1021.2 hPa South 16.7 km/h 16.7 km/h 73 % 0.0 mm 0.0 W/m2 CLR
03:22 13.3 °C 8.6 °C 1021.2 hPa SSW 25.9 km/h 25.9 km/h 73 % 0.0 mm 0.0 W/m2 CLR
03:27 13.9 °C 9.1 °C 1021.2 hPa SSW 16.7 km/h 16.7 km/h 73 % 0.0 mm 0.0 W/m2 CLR
03:32 13.9 °C 9.1 °C 1021.2 hPa SSW 17.7 km/h 17.7 km/h 73 % 0.0 mm 0.0 W/m2 CLR
03:37 13.3 °C 8.8 °C 1021.2 hPa South 27.8 km/h 27.8 km/h 74 % 0.0 mm 0.0 W/m2 CLR
03:42 13.3 °C 8.8 °C 1021.2 hPa South 18.5 km/h 18.5 km/h 74 % 0.0 mm 0.0 W/m2 CLR
03:47 13.3 °C 8.6 °C 1021.2 hPa SSW 18.5 km/h 18.5 km/h 73 % 0.0 mm 0.0 W/m2 CLR
03:52 13.3 °C 8.6 °C 1021.2 hPa SSW 14.5 km/h 14.5 km/h 73 % 0.0 mm 0.0 W/m2 CLR
03:57 13.9 °C 9.1 °C 1020.9 hPa SSW 22.2 km/h 22.2 km/h 73 % 0.0 mm 0.0 W/m2 CLR
04:02 13.9 °C 9.1 °C 1020.9 hPa SSW 12.9 km/h 12.9 km/h 73 % 0.0 mm 0.0 W/m2 CLR
04:07 13.9 °C 9.3 °C 1020.9 hPa South 18.5 km/h 18.5 km/h 74 % 0.0 mm 0.0 W/m2 CLR
04:13 13.9 °C 9.3 °C 1020.9 hPa SSW 12.9 km/h 12.9 km/h 74 % 0.0 mm 0.0 W/m2 CLR
04:18 13.9 °C 9.3 °C 1020.9 hPa SSW 18.5 km/h 18.5 km/h 74 % 0.0 mm 0.0 W/m2 CLR
04:20 13.9 °C 9.3 °C 1020.9 hPa SSW 20.4 km/h 20.4 km/h 74 % 0.0 mm 0.0 W/m2 CLR
04:22 13.9 °C 9.3 °C 1020.9 hPa South 22.2 km/h 22.2 km/h 74 % 0.0 mm 0.0 W/m2 CLR
04:23 13.9 °C 9.3 °C 1020.9 hPa South 22.2 km/h 22.2 km/h 74 % 0.0 mm 0.0 W/m2 CLR
04:25 13.9 °C 9.3 °C 1020.9 hPa South 31.5 km/h 31.5 km/h 74 % 0.0 mm 0.0 W/m2 CLR
04:30 13.9 °C 9.1 °C 1020.9 hPa SSW 18.5 km/h 18.5 km/h 73 % 0.0 mm 0.0 W/m2 CLR
04:35 13.9 °C 9.3 °C 1020.9 hPa SSW 16.7 km/h 16.7 km/h 74 % 0.0 mm 0.0 W/m2 CLR
04:40 13.9 °C 9.3 °C 1020.9 hPa South 18.5 km/h 18.5 km/h 74 % 0.0 mm 0.0 W/m2 CLR
04:45 13.9 °C 9.3 °C 1020.9 hPa South 24.1 km/h 24.1 km/h 74 % 0.0 mm 0.0 W/m2 CLR
04:46 13.9 °C 9.3 °C 1020.9 hPa SW 18.5 km/h 18.5 km/h 74 % 0.0 mm 0.0 W/m2 CLR
04:51 13.9 °C 9.3 °C 1020.9 hPa SSW 20.4 km/h 20.4 km/h 74 % 0.0 mm 0.0 W/m2 CLR
04:56 13.9 °C 9.3 °C 1020.9 hPa SSW 18.5 km/h 18.5 km/h 74 % 0.0 mm 0.0 W/m2 CLR
05:01 13.9 °C 9.3 °C 1020.9 hPa SSW 22.2 km/h 22.2 km/h 74 % 0.0 mm 0.0 W/m2 CLR
05:06 13.9 °C 9.3 °C 1020.9 hPa SSW 27.8 km/h 27.8 km/h 74 % 0.0 mm 0.0 W/m2 CLR
05:11 13.9 °C 9.3 °C 1020.9 hPa South 20.9 km/h 20.9 km/h 74 % 0.0 mm 0.0 W/m2 CLR
05:16 13.9 °C 9.3 °C 1020.5 hPa SSE 20.4 km/h 20.4 km/h 74 % 0.0 mm 0.0 W/m2 CLR
05:21 13.9 °C 9.3 °C 1020.5 hPa SSW 22.2 km/h 22.2 km/h 74 % 0.0 mm 0.0 W/m2 CLR
05:26 13.9 °C 9.3 °C 1020.5 hPa SSW 25.9 km/h 25.9 km/h 74 % 0.0 mm 0.0 W/m2 CLR
05:31 13.9 °C 9.6 °C 1020.5 hPa SW 18.5 km/h 18.5 km/h 75 % 0.0 mm 0.0 W/m2 CLR
05:36 13.9 °C 9.6 °C 1020.9 hPa SSW 31.5 km/h 31.5 km/h 75 % 0.0 mm 0.0 W/m2 CLR
05:41 13.9 °C 9.3 °C 1020.5 hPa South 24.1 km/h 24.1 km/h 74 % 0.0 mm 0.0 W/m2 CLR
05:46 13.9 °C 9.6 °C 1020.9 hPa South 20.4 km/h 20.4 km/h 75 % 0.0 mm 0.0 W/m2 CLR
05:51 13.9 °C 9.3 °C 1020.5 hPa SSW 18.5 km/h 18.5 km/h 74 % 0.0 mm 0.0 W/m2 CLR
05:56 13.3 °C 9.0 °C 1020.5 hPa South 20.4 km/h 20.4 km/h 75 % 0.0 mm 0.0 W/m2 CLR
06:01 13.3 °C 8.8 °C 1020.5 hPa SSW 22.2 km/h 22.2 km/h 74 % 0.0 mm 0.0 W/m2 CLR
06:06 13.3 °C 8.8 °C 1020.5 hPa SSW 18.5 km/h 18.5 km/h 74 % 0.0 mm 0.0 W/m2 CLR
06:11 13.3 °C 8.8 °C 1020.5 hPa South 32.2 km/h 32.2 km/h 74 % 0.0 mm 0.0 W/m2 CLR
06:12 13.3 °C 8.8 °C 1020.5 hPa South 24.1 km/h 24.1 km/h 74 % 0.0 mm 0.0 W/m2 CLR
06:17 13.3 °C 8.8 °C 1020.5 hPa South 24.1 km/h 24.1 km/h 74 % 0.0 mm 0.0 W/m2 CLR
06:22 13.3 °C 8.8 °C 1020.5 hPa South 25.9 km/h 25.9 km/h 74 % 0.0 mm 0.0 W/m2 CLR
06:27 13.3 °C 8.8 °C 1020.5 hPa SSW 22.2 km/h 22.2 km/h 74 % 0.0 mm 0.0 W/m2 CLR
06:32 13.3 °C 8.8 °C 1020.5 hPa SSW 18.5 km/h 18.5 km/h 74 % 0.0 mm 0.0 W/m2 CLR
06:37 13.3 °C 8.8 °C 1020.5 hPa SSW 18.5 km/h 18.5 km/h 74 % 0.0 mm 0.0 W/m2 CLR
06:42 13.3 °C 8.8 °C 1020.5 hPa South 16.7 km/h 16.7 km/h 74 % 0.0 mm 0.0 W/m2 CLR
06:47 13.3 °C 8.8 °C 1020.5 hPa SSW 18.5 km/h 18.5 km/h 74 % 0.0 mm 0.0 W/m2 CLR
06:52 13.3 °C 8.8 °C 1020.5 hPa SSW 18.5 km/h 18.5 km/h 74 % 0.0 mm 0.0 W/m2 CLR
06:57 13.3 °C 8.8 °C 1020.5 hPa SSW 20.4 km/h 20.4 km/h 74 % 0.0 mm 0.0 W/m2 CLR
07:02 13.3 °C 8.8 °C 1020.5 hPa South 16.7 km/h 16.7 km/h 74 % 0.0 mm 0.0 W/m2 CLR
07:07 13.3 °C 8.8 °C 1020.5 hPa South 18.5 km/h 18.5 km/h 74 % 0.0 mm 0.0 W/m2 CLR
07:12 13.3 °C 8.6 °C 1020.5 hPa SSW 22.2 km/h 22.2 km/h 73 % 0.0 mm 0.0 W/m2 CLR
07:17 13.3 °C 8.6 °C 1020.5 hPa SSW 16.7 km/h 16.7 km/h 73 % 0.0 mm 0.0 W/m2 CLR
07:22 13.3 °C 8.6 °C 1020.5 hPa South 22.2 km/h 22.2 km/h 73 % 0.0 mm 0.0 W/m2 OVC
07:27 13.3 °C 8.6 °C 1020.5 hPa SSW 20.4 km/h 20.4 km/h 73 % 0.0 mm 0.0 W/m2 OVC
07:32 13.3 °C 8.6 °C 1020.5 hPa South 20.4 km/h 20.4 km/h 73 % 0.0 mm 5.0 W/m2 OVC
07:37 13.3 °C 8.6 °C 1020.5 hPa SSW 18.5 km/h 18.5 km/h 73 % 0.0 mm 7.0 W/m2 OVC
07:42 13.3 °C 8.6 °C 1020.5 hPa South 18.5 km/h 18.5 km/h 73 % 0.0 mm 9.0 W/m2 OVC
07:47 13.3 °C 8.6 °C 1020.5 hPa SSW 20.4 km/h 20.4 km/h 73 % 0.0 mm 16.0 W/m2 OVC
07:52 13.3 °C 8.6 °C 1020.5 hPa South 16.7 km/h 16.7 km/h 73 % 0.0 mm 16.0 W/m2 OVC
07:57 13.3 °C 8.6 °C 1020.5 hPa SSW 18.5 km/h 18.5 km/h 73 % 0.0 mm 18.0 W/m2 OVC
08:02 13.3 °C 8.6 °C 1020.5 hPa South 24.1 km/h 24.1 km/h 73 % 0.0 mm 23.0 W/m2 OVC
08:07 13.3 °C 8.6 °C 1020.5 hPa SSW 18.5 km/h 18.5 km/h 73 % 0.0 mm 23.0 W/m2 OVC
08:12 12.8 °C 8.1 °C 1020.5 hPa South 18.5 km/h 18.5 km/h 73 % 0.0 mm 28.0 W/m2 OVC
08:17 13.3 °C 8.6 °C 1020.5 hPa South 20.4 km/h 20.4 km/h 73 % 0.0 mm 56.0 W/m2 OVC
08:27 13.3 °C 8.6 °C 1020.9 hPa SSW 24.1 km/h 24.1 km/h 73 % 0.0 mm 47.0 W/m2 OVC
08:32 13.3 °C 8.6 °C 1020.9 hPa SW 24.1 km/h 24.1 km/h 73 % 0.0 mm 60.0 W/m2 BKN
08:37 13.9 °C 9.1 °C 1020.5 hPa South 16.7 km/h 16.7 km/h 73 % 0.0 mm 63.0 W/m2 SCT
08:42 13.9 °C 9.1 °C 1020.5 hPa South 18.5 km/h 18.5 km/h 73 % 0.0 mm 53.0 W/m2 SCT
08:47 13.9 °C 9.1 °C 1020.9 hPa SW 27.4 km/h 27.4 km/h 73 % 0.0 mm 62.0 W/m2 SCT
08:52 13.9 °C 8.9 °C 1020.9 hPa South 24.1 km/h 24.1 km/h 72 % 0.0 mm 74.0 W/m2 SCT
08:57 13.9 °C 8.9 °C 1020.9 hPa South 20.4 km/h 20.4 km/h 72 % 0.0 mm 90.0 W/m2 FEW
09:02 13.9 °C 8.9 °C 1020.9 hPa SSW 27.4 km/h 27.4 km/h 72 % 0.0 mm 91.0 W/m2 CLR
09:07 14.4 °C 9.4 °C 1020.9 hPa SW 25.9 km/h 25.9 km/h 72 % 0.0 mm 105.0 W/m2 CLR
09:12 14.4 °C 9.2 °C 1020.9 hPa South 24.1 km/h 24.1 km/h 71 % 0.0 mm 120.0 W/m2 CLR
09:17 14.4 °C 9.2 °C 1020.9 hPa SSW 17.7 km/h 17.7 km/h 71 % 0.0 mm 98.0 W/m2 CLR
09:22 14.4 °C 9.2 °C 1020.9 hPa SSW 27.8 km/h 27.8 km/h 71 % 0.0 mm 116.0 W/m2 CLR
09:27 14.4 °C 9.2 °C 1020.9 hPa SSW 24.1 km/h 24.1 km/h 71 % 0.0 mm 139.0 W/m2 CLR
09:32 14.4 °C 9.2 °C 1020.9 hPa SSW 22.2 km/h 22.2 km/h 71 % 0.0 mm 128.0 W/m2 CLR
09:37 14.4 °C 9.2 °C 1020.9 hPa SSW 16.7 km/h 16.7 km/h 71 % 0.0 mm 148.0 W/m2 CLR
09:42 14.4 °C 9.2 °C 1020.9 hPa SW 19.3 km/h 19.3 km/h 71 % 0.0 mm 146.0 W/m2 CLR
09:47 15.0 °C 9.6 °C 1020.9 hPa SW 25.9 km/h 25.9 km/h 70 % 0.0 mm 139.0 W/m2 CLR
09:52 15.0 °C 9.6 °C 1020.9 hPa South 31.5 km/h 31.5 km/h 70 % 0.0 mm 160.0 W/m2 CLR
09:57 15.0 °C 9.6 °C 1020.5 hPa WSW 24.1 km/h 24.1 km/h 70 % 0.0 mm 192.0 W/m2 CLR
10:02 15.0 °C 9.6 °C 1020.9 hPa SSW 29.6 km/h 29.6 km/h 70 % 0.0 mm 174.0 W/m2 CLR
10:07 15.0 °C 9.6 °C 1020.9 hPa SW 31.5 km/h 31.5 km/h 70 % 0.0 mm 167.0 W/m2 CLR
10:12 15.0 °C 9.6 °C 1020.9 hPa SSW 31.5 km/h 31.5 km/h 70 % 0.0 mm 185.0 W/m2 CLR
10:17 15.0 °C 9.3 °C 1020.9 hPa SW 25.9 km/h 25.9 km/h 69 % 0.0 mm 179.0 W/m2 CLR
10:22 15.6 °C 10.1 °C 1020.9 hPa SW 29.6 km/h 29.6 km/h 70 % 0.0 mm 181.0 W/m2 CLR
10:27 15.6 °C 9.9 °C 1020.9 hPa SW 25.9 km/h 25.9 km/h 69 % 0.0 mm 185.0 W/m2 CLR
10:32 15.6 °C 9.9 °C 1020.5 hPa SSW 22.2 km/h 22.2 km/h 69 % 0.0 mm 232.0 W/m2 CLR
10:37 15.6 °C 9.9 °C 1020.5 hPa SW 22.5 km/h 22.5 km/h 69 % 0.0 mm 176.0 W/m2 CLR
10:42 15.6 °C 9.7 °C 1020.5 hPa SSW 31.5 km/h 31.5 km/h 68 % 0.0 mm 206.0 W/m2 CLR
10:47 16.1 °C 10.2 °C 1020.5 hPa SW 29.6 km/h 29.6 km/h 68 % 0.0 mm 193.0 W/m2 CLR
10:57 16.1 °C 10.0 °C 1020.5 hPa SW 31.5 km/h 31.5 km/h 67 % 0.0 mm 135.0 W/m2 CLR
11:02 15.6 °C 9.4 °C 1020.5 hPa SSW 29.6 km/h 29.6 km/h 67 % 0.0 mm 151.0 W/m2 CLR
11:07 15.6 °C 9.4 °C 1020.5 hPa SW 24.1 km/h 24.1 km/h 67 % 0.0 mm 151.0 W/m2 CLR
11:12 16.1 °C 9.5 °C 1020.5 hPa SSW 25.9 km/h 25.9 km/h 65 % 0.0 mm 197.0 W/m2 CLR
11:17 16.1 °C 9.5 °C 1020.5 hPa SSW 25.9 km/h 25.9 km/h 65 % 0.0 mm 155.0 W/m2 CLR
11:22 16.1 °C 9.5 °C 1020.2 hPa SSW 22.2 km/h 22.2 km/h 65 % 0.0 mm 128.0 W/m2 CLR
11:27 16.1 °C 9.5 °C 1020.2 hPa SSW 27.8 km/h 27.8 km/h 65 % 0.0 mm 118.0 W/m2 CLR
11:32 16.1 °C 9.5 °C 1020.2 hPa SSW 20.4 km/h 20.4 km/h 65 % 0.0 mm 167.0 W/m2 CLR
11:37 16.1 °C 9.3 °C 1020.2 hPa SSW 18.5 km/h 18.5 km/h 64 % 0.0 mm 169.0 W/m2 CLR
11:42 16.1 °C 9.3 °C 1020.2 hPa SSW 24.1 km/h 24.1 km/h 64 % 0.0 mm 330.0 W/m2 CLR
11:47 17.2 °C 10.1 °C 1020.2 hPa SW 25.7 km/h 25.7 km/h 63 % 0.0 mm 183.0 W/m2 CLR
11:52 17.2 °C 10.1 °C 1019.9 hPa South 18.5 km/h 18.5 km/h 63 % 0.0 mm 550.0 W/m2 CLR
11:57 17.8 °C 10.4 °C 1019.9 hPa SW 22.5 km/h 22.5 km/h 62 % 0.0 mm 267.0 W/m2 CLR
12:02 17.8 °C 10.2 °C 1019.9 hPa SW 25.9 km/h 25.9 km/h 61 % 0.0 mm 269.0 W/m2 CLR
12:08 17.8 °C 10.2 °C 1019.9 hPa SSW 25.7 km/h 25.7 km/h 61 % 0.0 mm 301.0 W/m2 CLR
12:13 17.2 °C 9.4 °C 1019.9 hPa SSW 24.1 km/h 24.1 km/h 60 % 0.0 mm 288.0 W/m2 CLR
12:18 17.8 °C 9.9 °C 1019.5 hPa SSW 27.8 km/h 27.8 km/h 60 % 0.0 mm 371.0 W/m2 CLR
12:23 18.3 °C 10.2 °C 1019.5 hPa SSW 29.6 km/h 29.6 km/h 59 % 0.0 mm 316.0 W/m2 CLR
12:28 18.9 °C 10.7 °C 1019.5 hPa SSW 22.2 km/h 22.2 km/h 59 % 0.0 mm 793.0 W/m2 CLR
12:33 19.4 °C 10.7 °C 1019.5 hPa WSW 20.9 km/h 20.9 km/h 57 % 0.0 mm 243.0 W/m2 CLR
12:38 18.9 °C 10.4 °C 1019.2 hPa SW 24.1 km/h 24.1 km/h 58 % 0.0 mm 253.0 W/m2 CLR
12:43 18.3 °C 10.2 °C 1019.2 hPa SSW 29.6 km/h 29.6 km/h 59 % 0.0 mm 174.0 W/m2 CLR
12:48 17.8 °C 9.7 °C 1019.2 hPa SSW 27.8 km/h 27.8 km/h 59 % 0.0 mm 612.0 W/m2 CLR
12:53 18.9 °C 10.4 °C 1019.2 hPa South 20.4 km/h 20.4 km/h 58 % 0.0 mm 613.0 W/m2 CLR
12:58 18.9 °C 9.9 °C 1019.2 hPa South 29.6 km/h 29.6 km/h 56 % 0.0 mm 647.0 W/m2 CLR
13:03 18.9 °C 9.9 °C 1018.8 hPa South 33.3 km/h 33.3 km/h 56 % 0.0 mm 584.0 W/m2 CLR
13:08 18.9 °C 10.2 °C 1019.2 hPa SSW 25.7 km/h 25.7 km/h 57 % 0.0 mm 596.0 W/m2 CLR
13:13 18.9 °C 10.2 °C 1018.8 hPa SSW 25.9 km/h 25.9 km/h 57 % 0.0 mm 455.0 W/m2 CLR
13:18 19.4 °C 10.2 °C 1018.8 hPa SSW 27.8 km/h 27.8 km/h 55 % 0.0 mm 116.0 W/m2 CLR
13:23 19.4 °C 10.4 °C 1018.8 hPa SSW 27.8 km/h 27.8 km/h 56 % 0.0 mm 563.0 W/m2 CLR
13:28 19.4 °C 10.2 °C 1018.8 hPa South 27.4 km/h 27.4 km/h 55 % 0.0 mm 563.0 W/m2 CLR
13:33 19.4 °C 10.2 °C 1018.5 hPa SSW 22.2 km/h 22.2 km/h 55 % 0.0 mm 575.0 W/m2 CLR
13:38 20.0 °C 10.7 °C 1018.5 hPa WSW 24.1 km/h 24.1 km/h 55 % 0.0 mm 612.0 W/m2 CLR
13:43 20.0 °C 10.4 °C 1018.5 hPa SW 22.2 km/h 22.2 km/h 54 % 0.0 mm 633.0 W/m2 CLR
13:48 20.6 °C 10.7 °C 1018.5 hPa West 31.5 km/h 31.5 km/h 53 % 0.0 mm 587.0 W/m2 CLR
13:53 20.0 °C 10.4 °C 1018.5 hPa SW 14.8 km/h 14.8 km/h 54 % 0.0 mm 91.0 W/m2 CLR
13:58 19.4 °C 9.6 °C 1018.5 hPa SW 20.4 km/h 20.4 km/h 53 % 0.0 mm 555.0 W/m2 CLR
14:03 19.4 °C 9.6 °C 1018.5 hPa SW 20.4 km/h 20.4 km/h 53 % 0.0 mm 536.0 W/m2 CLR
14:08 20.0 °C 9.8 °C 1018.5 hPa SSW 29.6 km/h 29.6 km/h 52 % 0.0 mm 554.0 W/m2 CLR
14:13 19.4 °C 9.3 °C 1018.5 hPa SSW 18.5 km/h 18.5 km/h 52 % 0.0 mm 517.0 W/m2 CLR
14:18 20.0 °C 9.8 °C 1018.2 hPa South 27.8 km/h 27.8 km/h 52 % 0.0 mm 529.0 W/m2 CLR
14:23 20.0 °C 9.8 °C 1018.2 hPa WSW 24.1 km/h 24.1 km/h 52 % 0.0 mm 571.0 W/m2 CLR
14:28 20.0 °C 9.8 °C 1018.2 hPa West 25.7 km/h 25.7 km/h 52 % 0.0 mm 510.0 W/m2 CLR
14:33 20.0 °C 9.8 °C 1018.2 hPa SW 27.8 km/h 27.8 km/h 52 % 0.0 mm 489.0 W/m2 CLR
14:38 20.0 °C 9.8 °C 1018.2 hPa WSW 24.1 km/h 24.1 km/h 52 % 0.0 mm 492.0 W/m2 CLR
14:43 20.0 °C 9.8 °C 1018.2 hPa SW 22.5 km/h 22.5 km/h 52 % 0.0 mm 476.0 W/m2 CLR
14:48 20.0 °C 9.6 °C 1018.2 hPa SW 24.1 km/h 24.1 km/h 51 % 0.0 mm 473.0 W/m2 CLR
14:53 20.6 °C 10.1 °C 1018.2 hPa SW 27.8 km/h 27.8 km/h 51 % 0.0 mm 469.0 W/m2 CLR
14:58 20.6 °C 10.1 °C 1018.2 hPa SSW 27.8 km/h 27.8 km/h 51 % 0.0 mm 439.0 W/m2 CLR
15:03 20.0 °C 9.6 °C 1018.2 hPa SW 24.1 km/h 24.1 km/h 51 % 0.0 mm 427.0 W/m2 CLR
15:08 20.0 °C 9.6 °C 1018.2 hPa SSW 24.1 km/h 24.1 km/h 51 % 0.0 mm 434.0 W/m2 CLR
15:13 20.0 °C 9.6 °C 1018.2 hPa SSW 22.2 km/h 22.2 km/h 51 % 0.0 mm 417.0 W/m2 CLR
15:16 20.0 °C 9.6 °C 1018.2 hPa SW 24.1 km/h 24.1 km/h 51 % 0.0 mm 417.0 W/m2 CLR
15:21 20.0 °C 9.6 °C 1018.2 hPa South 22.2 km/h 22.2 km/h 51 % 0.0 mm 403.0 W/m2 CLR
15:26 20.0 °C 9.6 °C 1017.8 hPa SSW 18.5 km/h 18.5 km/h 51 % 0.0 mm 373.0 W/m2 CLR
15:31 20.0 °C 9.3 °C 1017.8 hPa SW 22.2 km/h 22.2 km/h 50 % 0.0 mm 367.0 W/m2 CLR
15:36 20.6 °C 9.8 °C 1017.8 hPa SSW 25.9 km/h 25.9 km/h 50 % 0.0 mm 357.0 W/m2 CLR
15:41 20.0 °C 9.3 °C 1018.2 hPa SSW 20.4 km/h 20.4 km/h 50 % 0.0 mm 348.0 W/m2 CLR
15:46 20.0 °C 9.3 °C 1018.2 hPa SSW 24.1 km/h 24.1 km/h 50 % 0.0 mm 325.0 W/m2 CLR
15:51 20.0 °C 9.3 °C 1017.8 hPa SSW 18.5 km/h 18.5 km/h 50 % 0.0 mm 309.0 W/m2 CLR
15:56 20.0 °C 8.9 °C 1018.2 hPa SSW 24.1 km/h 24.1 km/h 49 % 0.0 mm 304.0 W/m2 CLR
16:01 20.0 °C 8.9 °C 1018.2 hPa SSW 20.4 km/h 20.4 km/h 49 % 0.0 mm 297.0 W/m2 CLR
16:03 20.0 °C 8.9 °C 1018.2 hPa SSW 18.5 km/h 18.5 km/h 49 % 0.0 mm 292.0 W/m2 CLR
16:08 20.0 °C 8.9 °C 1018.2 hPa SW 25.9 km/h 25.9 km/h 49 % 0.0 mm 267.0 W/m2 CLR
16:13 20.0 °C 8.9 °C 1018.2 hPa SSW 27.8 km/h 27.8 km/h 49 % 0.0 mm 229.0 W/m2 CLR
16:18 19.4 °C 8.4 °C 1018.2 hPa SW 22.5 km/h 22.5 km/h 49 % 0.0 mm 220.0 W/m2 CLR
16:23 19.4 °C 8.4 °C 1018.2 hPa SSW 18.5 km/h 18.5 km/h 49 % 0.0 mm 220.0 W/m2 CLR
16:28 19.4 °C 8.2 °C 1018.2 hPa SW 18.5 km/h 18.5 km/h 48 % 0.0 mm 209.0 W/m2 CLR
16:33 19.4 °C 8.4 °C 1018.2 hPa SSW 22.5 km/h 22.5 km/h 49 % 0.0 mm 183.0 W/m2 CLR
16:38 19.4 °C 8.4 °C 1018.5 hPa SW 20.4 km/h 20.4 km/h 49 % 0.0 mm 172.0 W/m2 CLR
16:43 19.4 °C 8.4 °C 1018.2 hPa West 18.5 km/h 18.5 km/h 49 % 0.0 mm 151.0 W/m2 CLR
16:58 18.9 °C 8.2 °C 1018.5 hPa SW 24.1 km/h 24.1 km/h 50 % 0.0 mm 95.0 W/m2 CLR
17:03 18.9 °C 8.2 °C 1018.5 hPa SW 22.2 km/h 22.2 km/h 50 % 0.0 mm 84.0 W/m2 CLR
17:08 18.3 °C 8.0 °C 1018.5 hPa SSW 22.2 km/h 22.2 km/h 51 % 0.0 mm 65.0 W/m2 SCT
17:13 18.3 °C 8.3 °C 1018.5 hPa SSW 20.4 km/h 20.4 km/h 52 % 0.0 mm 58.0 W/m2 SCT
17:18 18.3 °C 8.0 °C 1018.5 hPa SSW 18.5 km/h 18.5 km/h 51 % 0.0 mm 51.0 W/m2 SCT
17:23 18.3 °C 8.0 °C 1018.5 hPa SSW 18.5 km/h 18.5 km/h 51 % 0.0 mm 42.0 W/m2 BKN
17:28 17.8 °C 7.5 °C 1018.5 hPa SW 25.9 km/h 25.9 km/h 51 % 0.0 mm 32.0 W/m2 BKN
17:33 17.8 °C 7.8 °C 1018.8 hPa WSW 22.5 km/h 22.5 km/h 52 % 0.0 mm 25.0 W/m2 BKN
17:43 17.8 °C 7.8 °C 1018.8 hPa SW 18.5 km/h 18.5 km/h 52 % 0.0 mm 16.0 W/m2 BKN
17:48 17.2 °C 7.3 °C 1019.2 hPa SSW 14.8 km/h 14.8 km/h 52 % 0.0 mm 12.0 W/m2 BKN
17:53 17.2 °C 7.3 °C 1019.2 hPa SW 11.3 km/h 11.3 km/h 52 % 0.0 mm 7.0 W/m2 BKN
17:58 16.7 °C 6.8 °C 1019.2 hPa SSW 16.7 km/h 16.7 km/h 52 % 0.0 mm 5.0 W/m2 OVC
18:03 16.7 °C 7.1 °C 1019.2 hPa SSW 9.3 km/h 9.3 km/h 53 % 0.0 mm 0.0 W/m2 CLR
18:08 16.1 °C 6.5 °C 1019.2 hPa SW 16.7 km/h 16.7 km/h 53 % 0.0 mm 0.0 W/m2 CLR
18:13 16.1 °C 6.5 °C 1019.5 hPa SSW 11.3 km/h 11.3 km/h 53 % 0.0 mm 0.0 W/m2 CLR
18:18 15.6 °C 6.3 °C 1019.5 hPa Calm     54 % 0.0 mm 0.0 W/m2 CLR
18:23 15.6 °C 6.6 °C 1019.5 hPa Calm     55 % 0.0 mm 0.0 W/m2 CLR
18:28 15.0 °C 6.0 °C 1019.5 hPa SW 14.8 km/h 14.8 km/h 55 % 0.0 mm 0.0 W/m2 CLR
18:33 15.0 °C 6.0 °C 1019.9 hPa SW 3.7 km/h 3.7 km/h 55 % 0.0 mm 0.0 W/m2 CLR
18:38 15.0 °C 6.3 °C 1019.9 hPa SSW 16.7 km/h 16.7 km/h 56 % 0.0 mm 0.0 W/m2 CLR
18:43 15.6 °C 6.8 °C 1019.9 hPa SSW 14.8 km/h 14.8 km/h 56 % 0.0 mm 0.0 W/m2 CLR
18:48 15.6 °C 6.8 °C 1019.9 hPa SSW 13.0 km/h 13.0 km/h 56 % 0.0 mm 0.0 W/m2 CLR
18:53 15.0 °C 6.3 °C 1020.2 hPa WSW 14.8 km/h 14.8 km/h 56 % 0.0 mm 0.0 W/m2 CLR
18:58 15.0 °C 6.3 °C 1020.2 hPa SW 13.0 km/h 13.0 km/h 56 % 0.0 mm 0.0 W/m2 CLR
19:03 15.0 °C 6.6 °C 1020.2 hPa SSW 14.8 km/h 14.8 km/h 57 % 0.0 mm 0.0 W/m2 CLR
19:08 14.4 °C 6.0 °C 1020.5 hPa SW 17.7 km/h 17.7 km/h 57 % 0.0 mm 0.0 W/m2 CLR
19:13 14.4 °C 6.0 °C 1020.5 hPa SW 24.1 km/h 24.1 km/h 57 % 0.0 mm 0.0 W/m2 CLR
19:18 15.0 °C 6.6 °C 1020.9 hPa SW 18.5 km/h 18.5 km/h 57 % 0.0 mm 0.0 W/m2 CLR
19:23 15.0 °C 6.8 °C 1020.9 hPa SW 22.2 km/h 22.2 km/h 58 % 0.0 mm 0.0 W/m2 CLR
19:28 15.0 °C 6.8 °C 1020.9 hPa SSW 20.4 km/h 20.4 km/h 58 % 0.0 mm 0.0 W/m2 CLR
19:33 15.0 °C 7.1 °C 1021.2 hPa SSW 18.5 km/h 18.5 km/h 59 % 0.0 mm 0.0 W/m2 CLR
19:38 15.0 °C 7.1 °C 1021.2 hPa SW 16.7 km/h 16.7 km/h 59 % 0.0 mm 0.0 W/m2 CLR
19:43 14.4 °C 6.8 °C 1021.2 hPa SW 20.4 km/h 20.4 km/h 60 % 0.0 mm 0.0 W/m2 CLR
19:48 14.4 °C 6.8 °C 1021.2 hPa SSW 31.5 km/h 31.5 km/h 60 % 0.0 mm 0.0 W/m2 CLR
19:53 14.4 °C 6.8 °C 1021.2 hPa SSW 18.5 km/h 18.5 km/h 60 % 0.0 mm 0.0 W/m2 CLR
19:58 13.9 °C 6.5 °C 1021.2 hPa SSW 20.4 km/h 20.4 km/h 61 % 0.0 mm 0.0 W/m2 CLR
20:03 14.4 °C 6.8 °C 1021.6 hPa SSW 22.2 km/h 22.2 km/h 60 % 0.0 mm 0.0 W/m2 CLR
20:08 14.4 °C 7.0 °C 1021.6 hPa SSW 18.5 km/h 18.5 km/h 61 % 0.0 mm 0.0 W/m2 CLR
20:13 13.9 °C 6.5 °C 1021.6 hPa SSW 25.7 km/h 25.7 km/h 61 % 0.0 mm 0.0 W/m2 CLR
20:18 13.9 °C 6.5 °C 1021.6 hPa SSW 20.4 km/h 20.4 km/h 61 % 0.0 mm 0.0 W/m2 CLR
20:23 13.9 °C 6.5 °C 1021.6 hPa SSW 18.5 km/h 18.5 km/h 61 % 0.0 mm 0.0 W/m2 CLR
20:28 13.9 °C 6.5 °C 1021.9 hPa SSW 20.4 km/h 20.4 km/h 61 % 0.0 mm 0.0 W/m2 CLR
20:38 13.9 °C 6.7 °C 1021.9 hPa SW 20.4 km/h 20.4 km/h 62 % 0.0 mm 0.0 W/m2 CLR
20:43 13.9 °C 6.7 °C 1021.9 hPa SW 16.1 km/h 16.1 km/h 62 % 0.0 mm 0.0 W/m2 CLR
20:48 13.3 °C 6.2 °C 1022.2 hPa SSE 18.5 km/h 18.5 km/h 62 % 0.0 mm 0.0 W/m2 CLR
20:53 13.3 °C 6.4 °C 1022.2 hPa SSW 24.1 km/h 24.1 km/h 63 % 0.0 mm 0.0 W/m2 CLR
20:58 13.3 °C 6.4 °C 1022.2 hPa SSW 16.7 km/h 16.7 km/h 63 % 0.0 mm 0.0 W/m2 CLR
21:03 13.3 °C 6.4 °C 1022.2 hPa SSW 18.5 km/h 18.5 km/h 63 % 0.0 mm 0.0 W/m2 CLR
21:08 13.3 °C 6.4 °C 1022.6 hPa SSW 16.7 km/h 16.7 km/h 63 % 0.0 mm 0.0 W/m2 CLR
21:13 13.3 °C 6.7 °C 1022.6 hPa SSW 16.7 km/h 16.7 km/h 64 % 0.0 mm 0.0 W/m2 CLR
21:18 12.8 °C 6.1 °C 1022.6 hPa SSW 18.5 km/h 18.5 km/h 64 % 0.0 mm 0.0 W/m2 CLR
21:23 12.8 °C 6.1 °C 1022.6 hPa SSW 14.8 km/h 14.8 km/h 64 % 0.0 mm 0.0 W/m2 CLR
21:28 12.8 °C 6.1 °C 1022.6 hPa South 18.5 km/h 18.5 km/h 64 % 0.0 mm 0.0 W/m2 CLR
21:33 12.8 °C 6.3 °C 1022.9 hPa South 17.7 km/h 17.7 km/h 65 % 0.0 mm 0.0 W/m2 CLR
21:38 12.8 °C 6.3 °C 1022.9 hPa SSW 16.1 km/h 16.1 km/h 65 % 0.0 mm 0.0 W/m2 CLR
21:43 12.8 °C 6.3 °C 1022.9 hPa South 14.8 km/h 14.8 km/h 65 % 0.0 mm 0.0 W/m2 CLR
21:48 12.8 °C 6.3 °C 1023.2 hPa SSW 18.5 km/h 18.5 km/h 65 % 0.0 mm 0.0 W/m2 CLR
21:53 12.2 °C 5.8 °C 1023.2 hPa South 11.3 km/h 11.3 km/h 65 % 0.0 mm 0.0 W/m2 CLR
21:59 12.2 °C 6.1 °C 1023.2 hPa South 8.0 km/h 8.0 km/h 66 % 0.0 mm 0.0 W/m2 CLR
22:04 12.2 °C 6.1 °C 1023.2 hPa South 7.4 km/h 7.4 km/h 66 % 0.0 mm 0.0 W/m2 CLR
22:09 11.7 °C 5.5 °C 1023.6 hPa SSW 13.0 km/h 13.0 km/h 66 % 0.0 mm 0.0 W/m2 CLR
22:14 11.7 °C 5.5 °C 1023.6 hPa SSW 9.3 km/h 9.3 km/h 66 % 0.0 mm 0.0 W/m2 CLR
22:19 11.1 °C 5.0 °C 1023.6 hPa SSW 17.7 km/h 17.7 km/h 66 % 0.0 mm 0.0 W/m2 CLR
22:24 11.1 °C 5.0 °C 1023.6 hPa SSW 13.0 km/h 13.0 km/h 66 % 0.0 mm 0.0 W/m2 CLR
22:29 11.1 °C 5.2 °C 1023.9 hPa SSE 19.3 km/h 19.3 km/h 67 % 0.0 mm 0.0 W/m2 CLR
22:34 11.1 °C 5.2 °C 1023.6 hPa SSW 18.5 km/h 18.5 km/h 67 % 0.0 mm 0.0 W/m2 CLR
22:39 11.1 °C 5.0 °C 1023.9 hPa South 14.8 km/h 14.8 km/h 66 % 0.0 mm 0.0 W/m2 CLR
22:44 11.1 °C 5.2 °C 1023.9 hPa SSW 16.7 km/h 16.7 km/h 67 % 0.0 mm 0.0 W/m2 CLR
22:49 11.1 °C 5.2 °C 1023.9 hPa SW 20.4 km/h 20.4 km/h 67 % 0.0 mm 0.0 W/m2 CLR
22:54 11.1 °C 5.2 °C 1023.9 hPa SSW 5.6 km/h 5.6 km/h 67 % 0.0 mm 0.0 W/m2 CLR
23:04 10.6 °C 4.7 °C 1023.9 hPa South 14.8 km/h 14.8 km/h 67 % 0.0 mm 0.0 W/m2 CLR
23:09 10.0 °C 4.2 °C 1023.9 hPa South 14.8 km/h 14.8 km/h 67 % 0.0 mm 0.0 W/m2 CLR
23:14 10.0 °C 4.2 °C 1023.9 hPa South 13.0 km/h 13.0 km/h 67 % 0.0 mm 0.0 W/m2 CLR
23:19 10.0 °C 4.2 °C 1023.9 hPa SSE 14.8 km/h 14.8 km/h 67 % 0.0 mm 0.0 W/m2 CLR
23:24 9.4 °C 3.6 °C 1023.9 hPa SSW 24.1 km/h 24.1 km/h 67 % 0.0 mm 0.0 W/m2 CLR
23:29 9.4 °C 3.6 °C 1023.9 hPa SSW 13.0 km/h 13.0 km/h 67 % 0.0 mm 0.0 W/m2 CLR
23:34 9.4 °C 3.6 °C 1023.9 hPa SSW 14.8 km/h 14.8 km/h 67 % 0.0 mm 0.0 W/m2 CLR
23:39 9.4 °C 3.6 °C 1023.9 hPa SSW 16.7 km/h 16.7 km/h 67 % 0.0 mm 0.0 W/m2 CLR
23:44 9.4 °C 3.6 °C 1023.9 hPa SSW 13.0 km/h 13.0 km/h 67 % 0.0 mm 0.0 W/m2 CLR
23:49 9.4 °C 3.6 °C 1024.3 hPa SSW 14.8 km/h 14.8 km/h 67 % 0.0 mm 0.0 W/m2 CLR
23:54 9.4 °C 3.6 °C 1024.3 hPa SSW 13.0 km/h 13.0 km/h 67 % 0.0 mm 0.0 W/m2 CLR
23:59 10.0 °C 4.2 °C 1024.3 hPa SSW 9.7 km/h 9.7 km/h 67 % 0.0 mm 0.0 W/m2 CLR
Lo Temps de Massalio
Compliments of Weather Underground - 1.25 mb